^^
Meteo Knjazevac Station Historical Data
Daily Summary for January 18, 2021 Units:  Metric    English   Both
Daily Weekly Monthly Yearly Custom
  High: Low: Average:
Temperature: -2.3 °C -9.4 °C -5.3 °C
Dew Point: -5.5 °C -10.3 °C -7.3 °C
Humidity: 96% 73% 86%
Wind Speed: 14.5km/h 0km/h 5.6km/h
Wind Gust: 29km/h - -
Wind- - WSW
Pressure: 1025.6 hPa 1020.9 hPa -
Precipitation: 0 mm    
Historical Graphs
 
 
Tabular Data for January 18, 2021
Time Temperature Dew Point Pressure Wind Wind Speed Wind Gust Humidity Rainfall Rate (Hourly) solar Conditions
00:00 -6 °C -6.6 °C 1020.9 hPa NW 1.6 km/h 4.8 km/h 96% 0 mm 0 W/m2
00:10 -5.9 °C -6.4 °C 1021.2 hPa North 1.6 km/h 3.2 km/h 96% 0 mm 0 W/m2
00:20 -5.9 °C -6.4 °C 1021.2 hPa West 1.6 km/h 3.2 km/h 96% 0 mm 0 W/m2
00:30 -6 °C -6.6 °C 1021.2 hPa West 1.6 km/h 3.2 km/h 96% 0 mm 0 W/m2
00:40 -6.1 °C -6.6 °C 1021.2 hPa Calm   3.2 km/h 96% 0 mm 0 W/m2
00:50 -6.2 °C -6.7 °C 1021.6 hPa Calm   3.2 km/h 96% 0 mm 0 W/m2
01:00 -6.3 °C -6.9 °C 1021.6 hPa Calm     95% 0 mm 0 W/m2
01:10 -6.5 °C -7.2 °C 1021.6 hPa North 1.6 km/h 3.2 km/h 95% 0 mm 0 W/m2
01:20 -6.7 °C -7.3 °C 1021.6 hPa Calm   1.6 km/h 95% 0 mm 0 W/m2
01:30 -6.8 °C -7.4 °C 1021.9 hPa Calm   3.2 km/h 95% 0 mm 0 W/m2
01:40 -6.9 °C -7.6 °C 1021.9 hPa Calm   1.6 km/h 95% 0 mm 0 W/m2
01:50 -7.3 °C -8.1 °C 1021.9 hPa WNW 1.6 km/h 3.2 km/h 94% 0 mm 0 W/m2
02:00 -7.6 °C -8.4 °C 1021.9 hPa Calm   3.2 km/h 94% 0 mm 0 W/m2
02:10 -7.9 °C -8.7 °C 1021.9 hPa Calm   3.2 km/h 94% 0 mm 0 W/m2
02:20 -8 °C -8.8 °C 1021.9 hPa Calm   3.2 km/h 94% 0 mm 0 W/m2
02:40 -8.5 °C -9.4 °C 1022.2 hPa Calm   3.2 km/h 93% 0 mm 0 W/m2
02:50 -8.8 °C -9.7 °C 1022.2 hPa Calm   3.2 km/h 93% 0 mm 0 W/m2
03:00 -8.8 °C -9.6 °C 1022.2 hPa NNW 1.6 km/h 4.8 km/h 94% 0 mm 0 W/m2
03:10 -8.9 °C -9.7 °C 1022.2 hPa NW 1.6 km/h 3.2 km/h 94% 0 mm 0 W/m2
03:20 -9 °C -9.8 °C 1022.2 hPa NNW 1.6 km/h 4.8 km/h 94% 0 mm 0 W/m2
03:30 -8.9 °C -9.6 °C 1022.2 hPa NW 1.6 km/h 3.2 km/h 95% 0 mm 0 W/m2
03:40 -9 °C -9.8 °C 1022.2 hPa WNW 1.6 km/h 4.8 km/h 94% 0 mm 0 W/m2
03:50 -9 °C -9.8 °C 1022.2 hPa NW 1.6 km/h 3.2 km/h 94% 0 mm 0 W/m2
04:00 -9 °C -9.7 °C 1022.2 hPa Calm   3.2 km/h 95% 0 mm 0 W/m2
04:10 -8.8 °C -9.4 °C 1022.2 hPa NW 1.6 km/h 3.2 km/h 95% 0 mm 0 W/m2
04:20 -8.8 °C -9.4 °C 1022.2 hPa North 1.6 km/h 3.2 km/h 95% 0 mm 0 W/m2
04:30 -8.8 °C -9.4 °C 1022.2 hPa WNW 3.2 km/h 6.4 km/h 95% 0 mm 0 W/m2
04:40 -8.8 °C -9.4 °C 1022.2 hPa WNW 1.6 km/h 4.8 km/h 95% 0 mm 0 W/m2
04:50 -8.8 °C -9.4 °C 1022.2 hPa West 1.6 km/h 4.8 km/h 95% 0 mm 0 W/m2
05:00 -8.8 °C -9.4 °C 1022.2 hPa WNW 3.2 km/h 4.8 km/h 95% 0 mm 0 W/m2
05:10 -8.6 °C -9.3 °C 1022.6 hPa West 3.2 km/h 4.8 km/h 95% 0 mm 0 W/m2
05:30 -8.8 °C -9.4 °C 1022.6 hPa WNW 3.2 km/h 6.4 km/h 95% 0 mm 0 W/m2
05:40 -8.8 °C -9.6 °C 1022.9 hPa West 1.6 km/h 4.8 km/h 94% 0 mm 0 W/m2
05:50 -9 °C -9.8 °C 1022.9 hPa WNW 3.2 km/h 4.8 km/h 94% 0 mm 0 W/m2
06:00 -9.2 °C -10.1 °C 1022.9 hPa WNW 3.2 km/h 6.4 km/h 93% 0 mm 0 W/m2
06:10 -9.2 °C -10 °C 1022.9 hPa West 3.2 km/h 6.4 km/h 94% 0 mm 0 W/m2
06:20 -9.3 °C -10.1 °C 1022.9 hPa WNW 3.2 km/h 6.4 km/h 94% 0 mm 0 W/m2
06:30 -9.4 °C -10.3 °C 1022.9 hPa WNW 3.2 km/h 6.4 km/h 93% 0 mm 0 W/m2
06:40 -9.4 °C -10.2 °C 1023.2 hPa WNW 3.2 km/h 8 km/h 94% 0 mm 0 W/m2
06:50 -9.1 °C -9.8 °C 1023.2 hPa WNW 1.6 km/h 6.4 km/h 95% 0 mm 0 W/m2
07:00 -9.1 °C -9.7 °C 1023.2 hPa WNW 3.2 km/h 8 km/h 95% 0 mm 2 W/m2
07:10 -9.2 °C -10 °C 1023.2 hPa WNW 3.2 km/h 11.3 km/h 94% 0 mm 5 W/m2
07:20 -9.1 °C -9.9 °C 1022.9 hPa West 1.6 km/h 4.8 km/h 94% 0 mm 9 W/m2
07:30 -8.8 °C -9.4 °C 1023.2 hPa West 1.6 km/h 3.2 km/h 95% 0 mm 15 W/m2
07:40 -8.7 °C -9.3 °C 1023.2 hPa West 1.6 km/h 3.2 km/h 95% 0 mm 18 W/m2
07:50 -8.6 °C -9.3 °C 1023.2 hPa West 1.6 km/h 4.8 km/h 95% 0 mm 24 W/m2
08:00 -8.4 °C -9.1 °C 1023.2 hPa West 1.6 km/h 4.8 km/h 95% 0 mm 35 W/m2
08:10 -8.2 °C -8.8 °C 1023.6 hPa West 3.2 km/h 4.8 km/h 95% 0 mm 38 W/m2
08:20 -7.9 °C -8.6 °C 1023.6 hPa WSW 4.8 km/h 9.7 km/h 95% 0 mm 53 W/m2
08:30 -7.5 °C -8.2 °C 1023.6 hPa WSW 8 km/h 11.3 km/h 95% 0 mm 66 W/m2
08:40 -6.9 °C -7.6 °C 1023.6 hPa WSW 8 km/h 12.9 km/h 95% 0 mm 70 W/m2
08:50 -6.3 °C -7 °C 1023.9 hPa WSW 9.7 km/h 16.1 km/h 95% 0 mm 74 W/m2
09:00 -5.9 °C -6.7 °C 1023.9 hPa SW 8 km/h 16.1 km/h 94% 0 mm 69 W/m2
09:10 -5.6 °C -6.6 °C 1023.9 hPa SW 4.8 km/h 11.3 km/h 93% 0 mm 78 W/m2
09:20 -5.2 °C -6.4 °C 1023.9 hPa SW 11.3 km/h 17.7 km/h 91% 0 mm 80 W/m2
09:30 -4.9 °C -6.4 °C 1023.9 hPa WSW 9.7 km/h 16.1 km/h 89% 0 mm 102 W/m2
09:40 -4.7 °C -6.2 °C 1023.9 hPa WSW 4.8 km/h 16.1 km/h 89% 0 mm 96 W/m2
09:50 -4.5 °C -6.2 °C 1024.3 hPa SW 8 km/h 16.1 km/h 88% 0 mm 93 W/m2
10:00 -4.3 °C -6.3 °C 1024.3 hPa SW 8 km/h 20.9 km/h 86% 0 mm 102 W/m2
10:10 -4.2 °C -6.2 °C 1024.3 hPa SW 9.7 km/h 14.5 km/h 86% 0 mm 111 W/m2
10:20 -4.1 °C -6.2 °C 1024.3 hPa WSW 9.7 km/h 16.1 km/h 85% 0 mm 100 W/m2
10:30 -4 °C -6.2 °C 1024.3 hPa SW 8 km/h 14.5 km/h 85% 0 mm 118 W/m2
10:40 -3.9 °C -6.1 °C 1024.3 hPa SW 8 km/h 16.1 km/h 85% 0 mm 117 W/m2
10:50 -3.8 °C -5.9 °C 1023.9 hPa WSW 9.7 km/h 20.9 km/h 85% 0 mm 133 W/m2
11:00 -3.7 °C -5.8 °C 1023.9 hPa SW 9.7 km/h 19.3 km/h 85% 0 mm 134 W/m2
11:10 -3.6 °C -5.6 °C 1023.9 hPa SW 8 km/h 16.1 km/h 86% 0 mm 138 W/m2
11:20 -3.5 °C -5.5 °C 1023.9 hPa SW 8 km/h 12.9 km/h 86% 0 mm 164 W/m2
11:30 -3.4 °C -5.6 °C 1023.9 hPa SW 8 km/h 16.1 km/h 85% 0 mm 138 W/m2
11:40 -3.3 °C -5.6 °C 1023.6 hPa WSW 4.8 km/h 14.5 km/h 84% 0 mm 120 W/m2
11:50 -3.2 °C -5.7 °C 1023.6 hPa WSW 9.7 km/h 14.5 km/h 83% 0 mm 140 W/m2
12:00 -3.2 °C -5.7 °C 1023.9 hPa WSW 9.7 km/h 16.1 km/h 83% 0 mm 116 W/m2
12:10 -3.1 °C -5.6 °C 1023.6 hPa WSW 9.7 km/h 16.1 km/h 83% 0 mm 134 W/m2
12:20 -3 °C -5.9 °C 1023.6 hPa West 8 km/h 19.3 km/h 80% 0 mm 123 W/m2
12:30 -3 °C -6.1 °C 1023.9 hPa WSW 8 km/h 16.1 km/h 79% 0 mm 126 W/m2
12:40 -3 °C -6.4 °C 1023.9 hPa WSW 11.3 km/h 25.7 km/h 77% 0 mm 153 W/m2
12:50 -3 °C -6.8 °C 1023.6 hPa WSW 12.9 km/h 25.7 km/h 75% 0 mm 164 W/m2
13:00 -2.8 °C -6.6 °C 1023.6 hPa WSW 9.7 km/h 20.9 km/h 75% 0 mm 296 W/m2
13:10 -2.6 °C -6.4 °C 1023.6 hPa WSW 11.3 km/h 24.1 km/h 75% 0 mm 200 W/m2
13:20 -2.4 °C -6.2 °C 1023.6 hPa WSW 12.9 km/h 22.5 km/h 75% 0 mm 206 W/m2
13:30 -2.4 °C -6.2 °C 1023.6 hPa West 12.9 km/h 24.1 km/h 75% 0 mm 196 W/m2
13:40 -2.3 °C -6.3 °C 1023.6 hPa West 14.5 km/h 25.7 km/h 74% 0 mm 272 W/m2
13:50 -2.6 °C -6.8 °C 1023.6 hPa West 14.5 km/h 27.4 km/h 73% 0 mm 198 W/m2
14:00 -2.6 °C -6.6 °C 1023.6 hPa WSW 12.9 km/h 22.5 km/h 74% 0 mm 125 W/m2
14:10 -2.8 °C -6.9 °C 1023.6 hPa WSW 12.9 km/h 27.4 km/h 73% 0 mm 123 W/m2
14:20 -2.8 °C -6.8 °C 1023.9 hPa WSW 11.3 km/h 22.5 km/h 74% 0 mm 88 W/m2
14:30 -2.8 °C -6.6 °C 1023.9 hPa WSW 9.7 km/h 20.9 km/h 75% 0 mm 85 W/m2
14:40 -2.7 °C -6.5 °C 1023.9 hPa WSW 9.7 km/h 20.9 km/h 75% 0 mm 90 W/m2
14:50 -2.8 °C -6.9 °C 1023.9 hPa WSW 12.9 km/h 29 km/h 73% 0 mm 79 W/m2
15:00 -2.9 °C -7.1 °C 1023.9 hPa WSW 12.9 km/h 24.1 km/h 73% 0 mm 76 W/m2
15:10 -2.9 °C -6.9 °C 1023.9 hPa WSW 9.7 km/h 19.3 km/h 74% 0 mm 63 W/m2
15:20 -2.9 °C -6.1 °C 1023.9 hPa SW 8 km/h 16.1 km/h 79% 0 mm 46 W/m2
15:30 -3 °C -5.9 °C 1023.9 hPa WSW 4.8 km/h 12.9 km/h 80% 0 mm 32 W/m2
15:40 -3 °C -6.1 °C 1023.9 hPa WSW 12.9 km/h 19.3 km/h 79% 0 mm 19 W/m2
15:50 -3.1 °C -6.1 °C 1024.3 hPa WSW 9.7 km/h 16.1 km/h 80% 0 mm 14 W/m2
16:00 -3.2 °C -6 °C 1024.3 hPa WSW 8 km/h 14.5 km/h 81% 0 mm 8 W/m2
16:10 -3.2 °C -6 °C 1024.3 hPa WSW 9.7 km/h 11.3 km/h 81% 0 mm 7 W/m2
16:20 -3.3 °C -6.1 °C 1024.3 hPa WSW 8 km/h 11.3 km/h 81% 0 mm 3 W/m2
16:30 -3.4 °C -6.2 °C 1024.3 hPa WSW 8 km/h 12.9 km/h 81% 0 mm 0 W/m2
16:40 -3.4 °C -6.2 °C 1024.3 hPa WSW 9.7 km/h 14.5 km/h 81% 0 mm 0 W/m2
16:50 -3.5 °C -6.3 °C 1024.3 hPa SW 9.7 km/h 14.5 km/h 81% 0 mm 0 W/m2
17:00 -3.5 °C -5.9 °C 1024.3 hPa WSW 8 km/h 14.5 km/h 83% 0 mm 0 W/m2
17:10 -3.6 °C -6.1 °C 1024.3 hPa WSW 3.2 km/h 8 km/h 83% 0 mm 0 W/m2
17:20 -3.6 °C -6.1 °C 1024.6 hPa WSW 3.2 km/h 9.7 km/h 83% 0 mm 0 W/m2
17:30 -3.6 °C -5.9 °C 1024.6 hPa WSW 4.8 km/h 8 km/h 84% 0 mm 0 W/m2
17:40 -3.6 °C -5.9 °C 1024.6 hPa WSW 3.2 km/h 8 km/h 84% 0 mm 0 W/m2
17:50 -3.7 °C -6 °C 1024.9 hPa WSW 4.8 km/h 9.7 km/h 84% 0 mm 0 W/m2
18:00 -3.7 °C -6 °C 1024.9 hPa WSW 4.8 km/h 9.7 km/h 84% 0 mm 0 W/m2
18:10 -3.7 °C -6 °C 1024.9 hPa WSW 3.2 km/h 9.7 km/h 84% 0 mm 0 W/m2
18:20 -3.8 °C -6.1 °C 1024.9 hPa WSW 1.6 km/h 8 km/h 84% 0 mm 0 W/m2
18:30 -3.8 °C -6.1 °C 1024.9 hPa SW 1.6 km/h 6.4 km/h 84% 0 mm 0 W/m2
18:40 -3.8 °C -5.9 °C 1024.9 hPa WSW 1.6 km/h 4.8 km/h 85% 0 mm 0 W/m2
18:50 -3.9 °C -6.2 °C 1024.9 hPa SW 3.2 km/h 9.7 km/h 84% 0 mm 0 W/m2
19:00 -3.8 °C -6.3 °C 1024.9 hPa WSW 4.8 km/h 9.7 km/h 83% 0 mm 0 W/m2
19:10 -3.8 °C -6.3 °C 1024.9 hPa WSW 4.8 km/h 11.3 km/h 83% 0 mm 0 W/m2
19:20 -3.8 °C -6.6 °C 1024.9 hPa WSW 4.8 km/h 9.7 km/h 81% 0 mm 0 W/m2
19:30 -3.8 °C -6.6 °C 1024.9 hPa WSW 4.8 km/h 9.7 km/h 81% 0 mm 0 W/m2
19:40 -3.8 °C -6.6 °C 1024.9 hPa WSW 8 km/h 12.9 km/h 81% 0 mm 0 W/m2
19:50 -3.8 °C -6.6 °C 1024.9 hPa WSW 9.7 km/h 12.9 km/h 81% 0 mm 0 W/m2
20:00 -3.9 °C -6.7 °C 1024.9 hPa WSW 8 km/h 16.1 km/h 81% 0 mm 0 W/m2
20:10 -3.9 °C -6.4 °C 1024.9 hPa WSW 8 km/h 12.9 km/h 83% 0 mm 0 W/m2
20:20 -3.9 °C -6.4 °C 1024.9 hPa SW 3.2 km/h 9.7 km/h 83% 0 mm 0 W/m2
20:30 -4 °C -6.8 °C 1024.9 hPa SSW 4.8 km/h 11.3 km/h 81% 0 mm 0 W/m2
20:40 -4 °C -6.8 °C 1024.9 hPa SW 8 km/h 11.3 km/h 81% 0 mm 0 W/m2
20:50 -4 °C -6.8 °C 1025.3 hPa SW 4.8 km/h 16.1 km/h 81% 0 mm 0 W/m2
21:00 -4 °C -6.8 °C 1025.3 hPa WSW 8 km/h 12.9 km/h 81% 0 mm 0 W/m2
21:10 -3.9 °C -6.7 °C 1025.3 hPa WSW 8 km/h 11.3 km/h 81% 0 mm 0 W/m2
21:20 -4 °C -6.8 °C 1025.3 hPa SW 3.2 km/h 11.3 km/h 81% 0 mm 0 W/m2
21:30 -4 °C -6.8 °C 1025.3 hPa SW 4.8 km/h 8 km/h 81% 0 mm 0 W/m2
21:40 -4.1 °C -6.9 °C 1025.3 hPa SW 3.2 km/h 8 km/h 81% 0 mm 0 W/m2
21:50 -4.1 °C -6.9 °C 1025.3 hPa WSW 4.8 km/h 8 km/h 81% 0 mm 0 W/m2
22:00 -4 °C -6.8 °C 1025.3 hPa WSW 3.2 km/h 11.3 km/h 81% 0 mm 0 W/m2
22:10 -4.1 °C -6.9 °C 1025.3 hPa WSW 4.8 km/h 9.7 km/h 81% 0 mm 0 W/m2
22:20 -4.1 °C -6.9 °C 1025.3 hPa WSW 4.8 km/h 9.7 km/h 81% 0 mm 0 W/m2
22:30 -4.1 °C -6.9 °C 1025.3 hPa SW 8 km/h 12.9 km/h 81% 0 mm 0 W/m2
22:40 -4.1 °C -6.9 °C 1025.6 hPa SW 4.8 km/h 12.9 km/h 81% 0 mm 0 W/m2
22:50 -4.1 °C -6.9 °C 1025.6 hPa SW 8 km/h 14.5 km/h 81% 0 mm 0 W/m2
23:00 -4 °C -6.8 °C 1025.6 hPa WSW 8 km/h 12.9 km/h 81% 0 mm 0 W/m2
23:10 -4 °C -6.8 °C 1025.6 hPa WSW 8 km/h 14.5 km/h 81% 0 mm 0 W/m2
23:20 -4 °C -6.9 °C 1025.6 hPa WSW 9.7 km/h 16.1 km/h 80% 0 mm 0 W/m2
23:30 -4 °C -6.9 °C 1025.6 hPa WSW 4.8 km/h 19.3 km/h 80% 0 mm 0 W/m2
23:40 -4 °C -6.9 °C 1025.6 hPa WSW 9.7 km/h 12.9 km/h 80% 0 mm 0 W/m2
23:50 -3.9 °C -6.8 °C 1025.6 hPa SW 12.9 km/h 19.3 km/h 80% 0 mm 0 W/m2
Knjazevac, Serbia
Compliments of Weather Underground - 2 mb